LIPU

Padua Airport

Airport
ICAO code
LIPU
IATA Code
QPA
Summary
ICAO Region
EUR
ICAO Territory
Location

Padua, Veneto

Serving
Padua
Elevation
44 ft
Coordinates
45° 23' 43" N , 11° 50' 52" E
KCC
Metar
LIPU 220555Z 26007KT 220V300 CAVOK 23/17 Q1010

Padua “Gino Allegri” Airport is an airport serving Padua, Veneto, Italy.

Climatology

Humid subtropical climate (Köppen climate classification Cfa)

Runways

Designator Length Width Surface Rops
4/22 1122 30 ASP No/No

Airport map

Aerial View

SKYbrary Partners:

Safety knowledge contributed by: